Language: 

Nearby METAR Reports

METAR Reports

Hourly observations from airfields within 50 miles of this weather station

 

EGHH - Bournemouth Airp, United Kingdom
Distance from station: S 10mi, 17km
Updated: Mon, 19-Nov-2018 7:20pm GMT
Partly Cloudy
Partly Cloudy
 Wind from NE
Wind: NE 9 mph , 15 km/h
Temperature: 5°C
Wind Chill: 2°C
Dew Point: 3°C
Humidity: 87%
Barometer: 1015 hPa
Clouds: Partly Cloudy
Visibility: 6 miles , 10 km
Cloud details: Partly Cloudy 1280 m
2018/11/19 19:20 EGHH 191920Z 04008KT 9999 SCT042 05/03 Q1015
EGDM - Boscombe Down, United Kingdom
Distance from station: N 16mi, 26km
Updated: Mon, 19-Nov-2018 6:50pm GMT
Partly Cloudy
Partly Cloudy
 Wind from NNE
Wind: NNE 17 mph , 28 km/h
Temperature: 5°C
Wind Chill: 1°C
Dew Point: 2°C
Humidity: 81%
Barometer: 1016 hPa
Clouds: Partly Cloudy
Visibility: 6 miles , 10 km
Cloud details: Few Clouds 914 m
Partly Cloudy 1524 m
2018/11/19 18:50 EGDM 191850Z 03015KT 9999 FEW030 SCT050 05/02 Q1016 BLU NOSIG
 
EGVP - Middle Wallop, United Kingdom
Distance from station: NE 17mi, 27km
Updated: Mon, 19-Nov-2018 7:40pm GMT
Heavy rain, Showers, Mostly cloudy
Heavy rain, Showers, Mostly cloudy
 Wind from ENE
Wind: ENE 16 mph , 26 km/h, Gust: 32 mph , 52 km/h
Temperature: 5°C
Wind Chill: 1°C
Dew Point: 2°C
Humidity: 81%
Barometer: 1015 hPa
Summary: Heavy rain, Showers
Clouds: Mostly Cloudy
Visibility: 2 miles , 4 km
Cloud details: Partly Cloudy 427 m
Mostly Cloudy 732 m
Mostly Cloudy 1829 m
2018/11/19 19:40 EGVP 191940Z 07014G28KT 3500 +SHRA SCT014 BKN024 BKN060 05/02 Q1015 YLO1 TEMPO 9999 NSW BKN060 BLU
EGHI - Southampton Wx C, United Kingdom
Distance from station: E 19mi, 31km
Updated: Mon, 19-Nov-2018 7:20pm GMT
Rain showers, Partly cloudy
Rain showers, Partly cloudy
 Wind from NE
Wind: NE 15 mph , 24 km/h, Gust: 29 mph , 46 km/h
Temperature: 5°C
Wind Chill: 1°C
Dew Point: 2°C
Humidity: 81%
Barometer: 1015 hPa
Summary: Rain Showers
Clouds: Partly Cloudy
Visibility: 6 miles , 10 km
Cloud details: Partly Cloudy 732 m
Partly Cloudy 914 m
2018/11/19 19:20 EGHI 191920Z 04013G25KT 360V100 9999 SHRA SCT024 SCT030 05/02 Q1015
 
EGDY - Yeovilton (navy), United Kingdom
Distance from station: W 36mi, 58km
Updated: Mon, 19-Nov-2018 6:50pm GMT
Few Clouds
Few Clouds
 Wind from NNE
Wind: NNE 13 mph , 20 km/h
Temperature: 5°C
Wind Chill: 1°C
Dew Point: 2°C
Humidity: 81%
Barometer: 1016 hPa
Clouds: Few Clouds
Visibility: 6 miles , 10 km
Cloud details: Few Clouds 914 m
2018/11/19 18:50 EGDY 191850Z 03011KT 9999 FEW030 05/02 Q1016 BLU NOSIG
EGVO - Odiham Raf, United Kingdom
Distance from station: ENE 42mi, 68km
Updated: Mon, 19-Nov-2018 6:50pm GMT
Light rain, Showers, Mostly cloudy
Light rain, Showers, Mostly cloudy
 Wind from NE
Wind: NE 14 mph , 22 km/h
Temperature: 5°C
Wind Chill: 1°C
Dew Point: 2°C
Humidity: 81%
Barometer: 1015 hPa
Summary: Light rain, Showers
Clouds: Mostly Cloudy
Visibility: 6 miles , 10 km
Cloud details: Few Clouds 610 m
Mostly Cloudy 914 m
2018/11/19 18:50 EGVO 191850Z 05012KT 9999 -SHRA FEW020 BKN030 05/02 Q1015 BLU TEMPO SCT014 GRN

Metar display script from Saratoga-Weather.org

top of page button